Airfield :
LOGIN :

Register | Disclaimer

   EN    FR    IT 

 










Legend :    VFR   Marginal VFR   IFR   Intensive IFR   Very Intensive IFR
Visi :
Ceiling :
>= 8 km
>= 3000ft
5 to 8 km
1000 to 3000 ft
1500m to 5 km
500 to 1000 ft
800 to 1500m
200 to 500 ft
< 800m
< 200 ft
Symbols :   Thunderstorms  Fog  Heavy snow  Heavy precipitations  Wind > 20 kt
SIGMETs :     Misc.  Thunderstorms  Icing  Turbulence  Mountain Waves  Volcanic Ashes






- Airport Elevation : 200 ft


EBBL - Klein Brogel AB

CURRENT METAR :
  • 231033Z AUTO 20003KT 7000 FEW006/// OVC052/// 10/09 Q1028 WHT

EXPIRED METARs :
  • 231020Z AUTO 18003KT 6000 FEW006/// OVC053/// 10/09 Q1028 WHT
  • 231009Z AUTO VRB02KT 6000 FEW005/// OVC006/// OVC053/// 10/09 Q1028 YLO
  • 230955Z AUTO VRB02KT 5000 FEW004/// OVC054/// 10/09 Q1028 WHT
  • 230925Z AUTO 23003KT 4100 BR BKN004/// OVC056/// 09/09 Q1028 YLO
  • 230914Z AUTO 21003KT 3900 BR BKN003/// OVC056/// 09/08 Q1028 YLO
  • 230855Z AUTO 19003KT 3300 BR BKN002/// OVC056/// 09/08 Q1028 AMB
  • 230825Z AUTO 21004KT 2000 BR OVC002/// 08/08 Q1028 AMB
  • 230813Z AUTO 21005KT 1500 BR BKN002/// 08/08 Q1027 AMB
  • 230755Z AUTO 22005KT 0700 FG BKN002/// 08/08 Q1027 RED

TAF TAF EBBL
Valid from the 23 at 10:00 until the 23 at 19:00 UTC


230841Z 2310/2319 21005KT 6000 FEW015 BKN050
BECMG 2310/2312 9999 SCT020 BKN050
BECMG 2316/2318 16005KT



MET'MAP, your aeronautical weather chart ! - Copyright ORBIFLY December 2007 - Disclaimer

ORBIFLY MET'MAP TEAM :

Programming & Development : Alexandra Zaïnal
Concept & original design : Baudouin d'Aumeries
Assistance for programming : Marc-Olivier Méhu
Technical & hardware support : Manuel Goepfert

Contact : metmap@orbifly.com




SOURCES & CREDITS :

   NOAA